createdAt,value
2023-01-23T00:06:15.029Z,10.18
2023-01-23T00:09:42.104Z,10.98
2023-01-23T00:20:22.939Z,8.40
2023-01-23T00:26:18.100Z,8.57
2023-01-23T00:29:06.751Z,8.27
2023-01-23T00:31:47.098Z,9.43
2023-01-23T00:34:29.137Z,10.23
2023-01-23T00:36:59.605Z,9.55
2023-01-23T00:39:40.053Z,9.82
2023-01-23T00:42:20.235Z,10.50
2023-01-23T00:47:49.688Z,11.70
2023-01-23T00:53:35.171Z,9.95
2023-01-23T00:56:26.588Z,11.05
2023-01-23T00:58:59.968Z,10.77
2023-01-23T01:02:06.694Z,9.73
2023-01-23T01:05:23.299Z,11.90
2023-01-23T01:08:18.024Z,11.40
2023-01-23T01:20:47.065Z,11.32
2023-01-23T01:23:34.906Z,10.35
2023-01-23T01:26:51.417Z,10.90
2023-01-23T01:29:29.567Z,10.77
2023-01-23T01:42:59.217Z,11.65
2023-01-23T01:51:10.022Z,11.55
2023-01-23T02:00:23.185Z,10.50
2023-01-23T02:06:23.782Z,10.93
2023-01-23T02:15:54.604Z,10.30
2023-01-23T02:18:27.070Z,10.98
2023-01-23T02:27:25.222Z,12.65
2023-01-23T02:33:22.236Z,11.65
2023-01-23T02:36:13.598Z,12.68
2023-01-23T02:39:08.146Z,10.95
2023-01-23T02:44:51.498Z,12.98
2023-01-23T02:47:34.441Z,10.75
2023-01-23T02:50:22.562Z,12.57
2023-01-23T02:53:26.409Z,11.82
2023-01-23T02:56:35.032Z,10.43
2023-01-23T02:59:43.979Z,12.20
2023-01-23T03:07:22.921Z,11.10
2023-01-23T03:19:59.163Z,12.02
2023-01-23T03:22:43.491Z,12.57
2023-01-23T03:25:25.527Z,11.68
2023-01-23T03:31:54.320Z,13.65
2023-01-23T03:35:18.280Z,12.77
2023-01-23T03:49:47.185Z,11.02
2023-01-23T03:55:32.768Z,11.30
2023-01-23T04:18:05.242Z,11.63
2023-01-23T04:20:51.889Z,12.05
2023-01-23T04:31:49.775Z,12.27
2023-01-23T04:38:29.581Z,10.77
2023-01-23T04:41:33.945Z,12.85
2023-01-23T04:54:33.530Z,12.05
2023-01-23T05:00:00.841Z,12.00
2023-01-23T05:02:58.041Z,13.20
2023-01-23T05:05:28.438Z,11.95
2023-01-23T05:08:00.905Z,11.90
2023-01-23T05:10:34.439Z,12.82
2023-01-23T05:13:06.802Z,12.30
2023-01-23T05:15:37.207Z,11.57
2023-01-23T05:18:38.216Z,13.35
2023-01-23T05:21:08.156Z,12.02
2023-01-23T05:23:40.811Z,13.55
2023-01-23T05:26:11.335Z,11.88
2023-01-23T05:29:11.392Z,11.82
2023-01-23T05:31:52.739Z,10.57
2023-01-23T05:34:46.509Z,10.77
2023-01-23T05:46:45.374Z,13.55
2023-01-23T05:49:21.622Z,11.10
2023-01-23T05:52:03.265Z,12.00
2023-01-23T05:54:33.450Z,12.75
2023-01-23T05:57:09.722Z,11.80
2023-01-23T06:00:21.814Z,12.43
2023-01-23T06:03:12.654Z,15.25
2023-01-23T06:06:08.194Z,17.90
2023-01-23T06:08:48.536Z,17.40
2023-01-23T06:11:38.433Z,12.30
2023-01-23T06:14:08.317Z,11.98
2023-01-23T06:16:36.805Z,12.20
2023-01-23T06:19:06.221Z,13.10
2023-01-23T06:21:36.921Z,11.43
2023-01-23T06:24:04.752Z,13.25
2023-01-23T06:26:31.738Z,12.07
2023-01-23T06:28:58.839Z,13.35
2023-01-23T06:31:25.949Z,12.52
2023-01-23T06:33:55.340Z,12.27
2023-01-23T06:36:29.062Z,11.52
2023-01-23T06:38:56.078Z,12.07
2023-01-23T06:41:28.368Z,12.65
2023-01-23T06:44:01.659Z,13.30
2023-01-23T06:46:29.455Z,14.23
2023-01-23T06:49:00.925Z,14.20
2023-01-23T06:51:33.284Z,14.43
2023-01-23T06:54:03.011Z,16.17
2023-01-23T06:56:32.147Z,14.88
2023-01-23T06:59:24.066Z,15.40
2023-01-23T07:05:21.987Z,13.23
2023-01-23T07:07:59.114Z,13.35
2023-01-23T07:10:30.363Z,14.95
2023-01-23T07:12:57.525Z,13.98
2023-01-23T07:15:26.238Z,13.35
2023-01-23T07:17:53.583Z,13.85
2023-01-23T07:20:20.882Z,14.73
2023-01-23T07:22:58.383Z,12.88
2023-01-23T07:25:26.157Z,14.27
2023-01-23T07:27:53.169Z,13.48
2023-01-23T07:30:21.301Z,13.98
2023-01-23T07:32:52.812Z,13.25
2023-01-23T07:35:33.078Z,12.60
2023-01-23T07:38:23.422Z,12.50
2023-01-23T07:41:30.332Z,12.98
2023-01-23T07:48:40.674Z,14.73
2023-01-23T07:59:25.553Z,13.05
2023-01-23T08:02:03.517Z,13.90
2023-01-23T08:04:36.674Z,13.07
2023-01-23T08:07:11.107Z,13.82
2023-01-23T08:09:39.554Z,14.68
2023-01-23T08:12:11.826Z,14.55
2023-01-23T08:14:41.540Z,13.52
2023-01-23T08:17:13.644Z,14.52
2023-01-23T08:25:24.419Z,13.95
2023-01-23T08:27:56.789Z,15.43
2023-01-23T08:30:27.545Z,16.30
2023-01-23T08:33:07.594Z,15.00
2023-01-23T08:35:53.775Z,15.38
2023-01-23T08:38:37.139Z,14.68
2023-01-23T08:41:14.341Z,14.52
2023-01-23T08:44:12.364Z,15.65
2023-01-23T08:46:46.761Z,14.93
2023-01-23T08:49:25.570Z,14.63
2023-01-23T08:51:57.235Z,14.55
2023-01-23T08:54:27.982Z,14.20
2023-01-23T08:59:47.942Z,15.50
2023-01-23T09:02:20.365Z,15.75
2023-01-23T09:04:58.724Z,14.73
2023-01-23T09:07:27.231Z,15.52
2023-01-23T09:09:56.274Z,14.32
2023-01-23T09:12:25.939Z,14.23
2023-01-23T09:15:01.717Z,13.85
2023-01-23T09:17:32.171Z,14.32
2023-01-23T09:20:00.979Z,15.70
2023-01-23T09:22:28.709Z,15.50
2023-01-23T09:25:06.092Z,14.57
2023-01-23T09:27:36.806Z,14.18
2023-01-23T09:30:18.955Z,14.30
2023-01-23T09:33:02.085Z,15.10
2023-01-23T09:35:43.911Z,14.60
2023-01-23T09:38:18.745Z,13.52
2023-01-23T09:47:53.379Z,13.52
2023-01-23T09:50:48.120Z,12.15
2023-01-23T09:53:28.359Z,14.98
2023-01-23T09:56:36.571Z,14.18
2023-01-23T10:00:15.109Z,12.80
2023-01-23T10:06:08.838Z,13.52
2023-01-23T10:09:10.518Z,14.20
2023-01-23T10:12:33.695Z,12.88
2023-01-23T10:15:26.235Z,13.93
2023-01-23T10:18:12.466Z,12.70
2023-01-23T10:20:54.570Z,13.38
2023-01-23T10:23:46.783Z,13.57
2023-01-23T10:26:41.731Z,13.07
2023-01-23T10:29:45.912Z,15.15
2023-01-23T10:32:57.704Z,13.35
2023-01-23T10:35:41.661Z,12.45
2023-01-23T10:38:50.187Z,14.07
2023-01-23T10:44:01.831Z,14.27
2023-01-23T10:46:38.392Z,12.52
2023-01-23T10:49:11.541Z,15.45
2023-01-23T10:52:04.853Z,13.48
2023-01-23T10:54:56.690Z,12.45
2023-01-23T10:57:45.341Z,12.68
2023-01-23T11:00:42.633Z,14.13
2023-01-23T11:03:56.642Z,12.27
2023-01-23T11:06:32.625Z,15.00
2023-01-23T11:12:15.059Z,13.55
2023-01-23T11:15:22.030Z,14.40
2023-01-23T11:24:46.527Z,12.25
2023-01-23T11:27:52.101Z,13.20
2023-01-23T11:30:40.876Z,13.40
2023-01-23T11:37:28.472Z,12.75
2023-01-23T11:40:27.321Z,12.48
2023-01-23T11:43:05.611Z,11.45
2023-01-23T11:46:43.260Z,12.43
2023-01-23T11:50:25.397Z,12.18
2023-01-23T11:53:41.546Z,12.98
2023-01-23T11:56:45.065Z,12.07
2023-01-23T11:59:59.919Z,11.38
2023-01-23T12:02:58.877Z,12.13
2023-01-23T12:06:19.231Z,11.70
2023-01-23T12:09:52.801Z,11.40
2023-01-23T12:13:15.740Z,11.50
2023-01-23T12:16:25.529Z,11.70
2023-01-23T12:23:07.613Z,11.15
2023-01-23T12:26:01.132Z,12.95
2023-01-23T12:29:13.659Z,13.18
2023-01-23T12:32:10.366Z,11.65
2023-01-23T12:34:53.138Z,10.93
2023-01-23T12:37:57.710Z,13.10
2023-01-23T12:40:56.262Z,11.43
2023-01-23T12:44:23.682Z,10.20
2023-01-23T12:51:00.769Z,12.63
2023-01-23T12:53:40.155Z,12.88
2023-01-23T12:56:43.205Z,13.63
2023-01-23T12:59:51.537Z,14.73
2023-01-23T13:02:40.927Z,13.50
2023-01-23T13:06:09.350Z,17.13
2023-01-23T13:10:02.653Z,16.25
2023-01-23T13:12:41.443Z,10.90
2023-01-23T13:15:40.446Z,11.02
2023-01-23T13:18:31.500Z,10.38
2023-01-23T13:21:19.411Z,10.18
2023-01-23T13:23:50.090Z,10.02
2023-01-23T13:26:35.921Z,13.32
2023-01-23T13:29:09.103Z,11.48
2023-01-23T13:31:50.751Z,10.48
2023-01-23T13:34:44.641Z,10.18
2023-01-23T13:37:41.123Z,9.90
2023-01-23T13:40:28.410Z,9.60
2023-01-23T13:42:56.337Z,10.60
2023-01-23T13:45:41.146Z,10.70
2023-01-23T14:28:34.392Z,9.23
2023-01-23T14:37:24.857Z,10.77
2023-01-23T14:40:11.702Z,10.13
2023-01-23T14:42:47.314Z,9.93
2023-01-23T14:45:25.126Z,10.85
2023-01-23T14:48:05.634Z,9.65
2023-01-23T14:50:37.215Z,10.38
2023-01-23T14:53:25.053Z,10.40
2023-01-23T14:56:00.208Z,9.32
2023-01-23T14:58:38.626Z,11.15
2023-01-23T15:01:08.727Z,9.43
2023-01-23T15:07:25.270Z,9.45
2023-01-23T15:13:00.593Z,10.32
2023-01-23T15:15:41.052Z,9.98
2023-01-23T15:18:27.574Z,9.63
2023-01-23T15:21:10.562Z,10.30
2023-01-23T15:26:44.260Z,10.10
2023-01-23T15:29:27.382Z,10.45
2023-01-23T15:31:56.690Z,10.70
2023-01-23T15:34:34.663Z,10.80
2023-01-23T15:37:40.691Z,9.73
2023-01-23T15:40:30.293Z,10.05
2023-01-23T15:43:15.028Z,9.10
2023-01-23T15:45:42.285Z,10.90
2023-01-23T15:51:03.644Z,9.70
2023-01-23T15:53:43.350Z,10.02
2023-01-23T15:56:29.376Z,10.75
2023-01-23T15:59:04.954Z,9.80
2023-01-23T16:01:35.576Z,9.75
2023-01-23T16:04:08.409Z,10.70
2023-01-23T16:06:38.191Z,10.70
2023-01-23T16:09:10.259Z,10.05
2023-01-23T16:11:44.910Z,9.55
2023-01-23T16:14:18.139Z,9.45
2023-01-23T16:17:15.811Z,10.05
2023-01-23T16:20:26.428Z,10.00
2023-01-23T16:23:47.248Z,9.95
2023-01-23T16:26:40.713Z,8.43
2023-01-23T16:29:45.219Z,9.15
2023-01-23T16:32:56.244Z,10.10
2023-01-23T16:36:15.231Z,9.43
2023-01-23T16:39:00.408Z,8.90
2023-01-23T16:41:47.665Z,9.85
2023-01-23T16:49:56.044Z,9.88
2023-01-23T16:52:47.799Z,9.43
2023-01-23T16:58:39.763Z,10.52
2023-01-23T17:01:26.599Z,9.57
2023-01-23T17:04:07.459Z,9.55
2023-01-23T17:06:41.146Z,10.43
2023-01-23T17:16:06.052Z,10.32
2023-01-23T17:21:42.678Z,9.70
2023-01-23T17:24:22.873Z,10.77
2023-01-23T17:27:34.346Z,9.73
2023-01-23T17:32:53.442Z,10.38
2023-01-23T17:35:32.149Z,9.52
2023-01-23T19:39:07.357Z,10.57
2023-01-23T19:42:05.044Z,10.68
2023-01-23T19:47:22.605Z,10.20
2023-01-23T19:50:04.840Z,10.35
2023-01-23T19:52:52.783Z,11.18
2023-01-23T19:55:45.872Z,11.40
2023-01-23T19:58:15.380Z,10.35
2023-01-23T20:00:43.825Z,10.68
2023-01-23T20:03:14.980Z,11.48
2023-01-23T20:06:01.400Z,11.93
2023-01-23T20:08:41.012Z,11.30
2023-01-23T20:11:15.652Z,11.80
2023-01-23T20:13:46.430Z,11.60
2023-01-23T20:16:25.045Z,11.95
2023-01-23T20:18:56.694Z,10.55
2023-01-23T20:21:27.584Z,10.98
2023-01-23T20:24:17.107Z,10.50
2023-01-23T20:26:48.141Z,12.18
2023-01-23T20:29:29.009Z,11.68
2023-01-23T20:32:05.976Z,10.68
2023-01-23T20:34:38.402Z,10.15
2023-01-23T20:37:12.330Z,10.52
2023-01-23T20:39:42.067Z,10.60
2023-01-23T20:42:11.282Z,9.88
2023-01-23T20:44:43.492Z,8.38
2023-01-23T20:47:12.546Z,10.10
2023-01-23T20:49:40.002Z,8.35
2023-01-23T20:52:26.642Z,8.82
2023-01-23T20:54:56.950Z,8.68
2023-01-23T20:57:52.928Z,10.45
2023-01-23T21:00:20.940Z,8.27
2023-01-23T21:02:50.769Z,8.73
2023-01-23T21:05:19.556Z,8.77
2023-01-23T21:07:48.164Z,9.07
2023-01-23T21:10:16.862Z,10.23
2023-01-23T21:12:44.890Z,8.63
2023-01-23T21:15:13.438Z,8.65
2023-01-23T21:17:54.655Z,9.95
2023-01-23T21:20:26.383Z,10.10
2023-01-23T21:22:59.737Z,9.80
2023-01-23T21:25:27.371Z,8.68
2023-01-23T21:28:02.408Z,7.57
2023-01-23T21:30:35.188Z,8.60
2023-01-23T21:33:11.481Z,8.50
2023-01-23T21:35:41.628Z,9.20
2023-01-23T21:38:08.909Z,9.00
2023-01-23T21:40:39.741Z,9.18
2023-01-23T21:43:06.847Z,9.60
2023-01-23T21:45:44.089Z,9.00
2023-01-23T21:51:16.377Z,8.68
2023-01-23T21:53:53.113Z,9.73
2023-01-23T21:56:22.843Z,9.52
2023-01-23T21:58:53.794Z,7.93
2023-01-23T22:01:36.198Z,9.05
2023-01-23T22:04:13.012Z,8.30
2023-01-23T22:06:44.467Z,8.93
2023-01-23T22:09:19.601Z,8.93
2023-01-23T22:11:53.105Z,10.18
2023-01-23T22:14:22.288Z,8.30
2023-01-23T22:17:00.524Z,10.00
2023-01-23T22:19:34.534Z,9.52
2023-01-23T22:24:47.238Z,8.95
2023-01-23T22:27:19.844Z,10.05
2023-01-23T22:29:48.142Z,9.38
2023-01-23T22:32:23.694Z,10.93
2023-01-23T22:34:51.197Z,8.70
2023-01-23T22:37:19.994Z,9.02
2023-01-23T22:39:58.616Z,8.85
2023-01-23T22:42:27.036Z,8.40
2023-01-23T22:45:11.192Z,8.43
2023-01-23T22:48:01.074Z,8.15
2023-01-23T22:50:38.000Z,8.95
2023-01-23T22:53:13.860Z,10.32
2023-01-23T22:55:44.077Z,8.90
2023-01-23T23:59:43.463Z,9.02
